Time;durP1;ratioP1;P1;durP2;ratioP2;P2;SDS_P1;SDS_P2;PMS_P1;PMS_P2;Temp;Humidity;BMP_temperature;BMP_pressure;BME280_temperature;BME280_humidity;BME280_pressure;Samples;Min_cycle;Max_cycle;Signal;HPM_P1;HPM_P2
2023/03/15 00:01:30;;;;;;;15.90;10.88;;;;;;;6.24;40.29;92853.06;4977530;28;20100;-78
2023/03/15 00:03:55;;;;;;;16.23;10.50;;;;;;;6.23;40.71;92864.69;4988182;28;20038;-78
2023/03/15 00:06:20;;;;;;;19.30;11.93;;;;;;;6.35;40.71;92866.75;4991423;28;20030;-78
2023/03/15 00:08:46;;;;;;;14.40;8.52;;;;;;;6.17;40.97;92849.31;4972707;28;20033;-80
2023/03/15 00:11:13;;;;;;;15.45;10.13;;;;;;;6.00;40.77;92819.13;4989392;28;20124;-78
2023/03/15 00:13:39;;;;;;;10.68;8.43;;;;;;;6.42;40.37;92857.25;4992788;28;20735;-78
2023/03/15 00:16:05;;;;;;;18.02;10.00;;;;;;;6.34;40.17;92851.97;4988344;28;20528;-79
2023/03/15 00:18:31;;;;;;;16.33;10.73;;;;;;;6.35;40.30;92848.25;4986942;28;20037;-78
2023/03/15 00:20:56;;;;;;;13.88;8.80;;;;;;;6.36;39.67;92839.25;4989006;28;20538;-78
2023/03/15 00:23:22;;;;;;;18.90;9.95;;;;;;;6.38;40.20;92858.19;4988106;28;20033;-79
2023/03/15 00:25:49;;;;;;;13.52;9.75;;;;;;;6.30;40.49;92837.84;4990263;28;20058;-79
2023/03/15 00:28:14;;;;;;;15.65;9.02;;;;;;;6.40;41.35;92840.19;4986741;28;20042;-79
2023/03/15 00:30:40;;;;;;;12.70;8.48;;;;;;;6.65;41.16;92844.69;4989223;28;20506;-77
2023/03/15 00:33:06;;;;;;;15.45;9.93;;;;;;;6.52;40.85;92861.47;4989133;28;20022;-79
2023/03/15 00:35:34;;;;;;;15.15;10.00;;;;;;;6.50;42.29;92866.28;4987521;28;20504;-80
2023/03/15 00:38:00;;;;;;;13.32;9.50;;;;;;;6.41;42.39;92847.78;4988289;28;20132;-77
2023/03/15 00:40:26;;;;;;;16.55;9.68;;;;;;;6.37;42.67;92854.78;4987836;28;20152;-79
2023/03/15 00:42:51;;;;;;;12.20;9.05;;;;;;;6.50;41.97;92852.31;4994019;28;20038;-79
2023/03/15 00:45:19;;;;;;;14.07;10.70;;;;;;;6.22;42.03;92822.75;4991028;28;20045;-80
2023/03/15 00:47:44;;;;;;;14.27;10.07;;;;;;;6.32;42.13;92835.66;4994177;28;20040;-81
2023/03/15 00:50:10;;;;;;;17.23;11.43;;;;;;;6.51;41.95;92843.28;4990802;28;20481;-77
2023/03/15 00:52:36;;;;;;;15.32;11.10;;;;;;;6.53;41.50;92835.81;4993316;28;20029;-79
2023/03/15 00:55:03;;;;;;;16.42;10.77;;;;;;;6.43;41.26;92811.28;4992721;28;20568;-78
2023/03/15 00:57:28;;;;;;;16.40;11.38;;;;;;;6.61;40.69;92832.41;4996179;28;20038;-78
2023/03/15 00:59:53;;;;;;;17.25;11.48;;;;;;;6.57;40.40;92810.34;4993054;28;20048;-78
2023/03/15 01:02:22;;;;;;;17.48;10.55;;;;;;;6.70;40.40;92823.38;4994624;28;20034;-80
2023/03/15 01:04:48;;;;;;;18.13;11.90;;;;;;;6.66;40.56;92811.88;4993998;28;20565;-78
2023/03/15 01:07:13;;;;;;;16.23;10.52;;;;;;;6.77;40.42;92818.41;4988879;28;20031;-80
2023/03/15 01:09:40;;;;;;;12.15;8.82;;;;;;;6.86;40.24;92816.53;4994782;28;20092;-78
2023/03/15 01:12:06;;;;;;;12.80;8.85;;;;;;;6.81;40.42;92806.13;4989545;28;20387;-79
2023/03/15 01:14:34;;;;;;;19.75;8.88;;;;;;;6.82;40.77;92797.09;4993386;28;20077;-80
2023/03/15 01:16:59;;;;;;;13.82;8.73;;;;;;;6.94;40.26;92804.41;4992887;28;20444;-79
2023/03/15 01:19:24;;;;;;;13.48;9.40;;;;;;;6.82;39.10;92786.53;4992271;28;20037;-79
2023/03/15 01:21:50;;;;;;;10.98;7.97;;;;;;;6.99;39.34;92795.53;4993273;28;20567;-81
2023/03/15 01:24:16;;;;;;;15.02;8.60;;;;;;;7.09;39.28;92801.25;4985657;28;20042;-76
2023/03/15 01:26:41;;;;;;;14.27;8.60;;;;;;;6.97;40.41;92761.47;5012140;28;20612;-80
2023/03/15 01:29:07;;;;;;;11.45;7.80;;;;;;;7.03;40.67;92799.09;5013489;28;20407;-78
2023/03/15 01:31:32;;;;;;;13.50;8.32;;;;;;;6.83;40.17;92776.75;4996316;28;20513;-77
2023/03/15 01:33:59;;;;;;;11.98;7.43;;;;;;;6.66;40.52;92772.25;5000318;28;20512;-76
2023/03/15 01:36:25;;;;;;;12.23;8.18;;;;;;;6.66;41.34;92772.25;5011837;28;20516;-77
2023/03/15 01:38:50;;;;;;;14.13;7.97;;;;;;;6.63;41.39;92770.25;5010078;28;20026;-78
2023/03/15 01:41:17;;;;;;;13.85;8.48;;;;;;;6.64;41.28;92769.16;5015329;28;20049;-76
2023/03/15 01:43:46;;;;;;;11.27;7.53;;;;;;;6.96;40.76;92796.16;5006006;28;20458;-79
2023/03/15 01:46:26;;;;;;;11.32;7.05;;;;;;;6.91;40.96;92788.38;5011738;28;20056;-81
2023/03/15 01:48:57;;;;;;;9.43;6.28;;;;;;;7.04;40.07;92779.50;4995228;28;20517;-79
2023/03/15 01:51:33;;;;;;;11.65;6.90;;;;;;;6.95;40.18;92773.44;5008053;28;20057;-80
2023/03/15 01:54:01;;;;;;;;;;;;;;;6.92;40.70;92771.44;5011779;28;20032;-78
2023/03/15 01:56:28;;;;;;;8.95;6.88;;;;;;;6.79;41.38;92759.97;5013131;28;19916;-78
2023/03/15 01:58:57;;;;;;;12.73;7.28;;;;;;;6.55;41.13;92726.16;5011759;28;20152;-78
2023/03/15 02:01:23;;;;;;;10.25;6.63;;;;;;;6.79;41.56;92754.69;5011905;28;20106;-78
2023/03/15 02:03:55;;;;;;;11.02;7.65;;;;;;;6.76;41.24;92750.78;4998289;28;20577;-78
2023/03/15 02:06:22;;;;;;;9.95;7.15;;;;;;;6.83;41.19;92745.81;5011153;28;20073;-79
2023/03/15 02:08:55;;;;;;;10.50;7.28;;;;;;;6.73;41.33;92719.72;5008753;28;20842;-78
2023/03/15 02:11:24;;;;;;;13.23;6.95;;;;;;;6.78;41.18;92753.91;5015433;28;20291;-79
2023/03/15 02:13:51;;;;;;;8.70;6.38;;;;;;;6.79;41.39;92746.75;4998942;28;20718;-80
2023/03/15 02:16:17;;;;;;;11.43;6.57;;;;;;;6.48;41.25;92703.91;5015243;28;20174;-79
2023/03/15 02:18:43;;;;;;;10.93;6.35;;;;;;;6.72;41.51;92744.59;5012008;28;20030;-80
2023/03/15 02:21:17;;;;;;;10.15;6.90;;;;;;;6.73;41.39;92740.88;5009086;28;20049;-80
2023/03/15 02:23:46;;;;;;;11.35;7.43;;;;;;;6.50;41.60;92691.97;5001915;28;20056;-78
2023/03/15 02:26:35;;;;;;;9.63;7.43;;;;;;;6.75;41.31;92732.63;5009811;28;20033;-79
2023/03/15 02:29:01;;;;;;;12.55;8.02;;;;;;;6.50;41.53;92722.88;5011162;28;20038;-79
2023/03/15 02:31:27;;;;;;;10.35;7.25;;;;;;;6.48;41.77;92707.34;5009019;28;20126;-80
2023/03/15 02:33:55;;;;;;;10.25;7.65;;;;;;;6.66;42.25;92729.22;4994603;28;20081;-78
2023/03/15 02:36:25;;;;;;;11.02;7.45;;;;;;;6.56;41.79;92727.66;4992065;28;20030;-77
2023/03/15 02:38:51;;;;;;;9.30;6.88;;;;;;;6.52;42.39;92729.38;5009836;28;20038;-77
2023/03/15 02:41:41;;;;;;;15.35;6.97;;;;;;;6.41;42.62;92720.22;5009392;28;20025;-76
2023/03/15 02:44:15;;;;;;;12.70;7.45;;;;;;;6.25;42.79;92703.34;5010275;28;20071;-78
2023/03/15 02:46:42;;;;;;;11.05;7.93;;;;;;;6.13;42.91;92679.41;5009054;28;20053;-77
2023/03/15 02:49:08;;;;;;;13.85;8.23;;;;;;;6.31;42.88;92697.56;5010740;28;20116;-78
2023/03/15 02:51:33;;;;;;;14.65;8.98;;;;;;;6.14;42.79;92683.59;5009217;28;20029;-76
2023/03/15 02:53:59;;;;;;;12.82;7.72;;;;;;;6.41;42.63;92728.16;5010101;28;20528;-77
2023/03/15 02:56:25;;;;;;;13.23;8.02;;;;;;;6.12;42.66;92688.41;5007892;28;20061;-77
2023/03/15 02:58:51;;;;;;;14.27;9.25;;;;;;;6.26;42.34;92710.19;5009627;28;20038;-77
2023/03/15 03:01:17;;;;;;;10.68;7.80;;;;;;;6.29;42.38;92706.91;5007511;28;20034;-78
2023/03/15 03:03:44;;;;;;;10.50;7.15;;;;;;;6.33;42.57;92705.97;5008797;28;20095;-78
2023/03/15 03:06:11;;;;;;;12.07;7.55;;;;;;;6.34;42.25;92706.75;5011643;28;20878;-77
2023/03/15 03:08:37;;;;;;;8.77;6.50;;;;;;;6.13;42.08;92679.41;5009472;28;20103;-77
2023/03/15 03:11:03;;;;;;;11.05;7.28;;;;;;;6.11;42.46;92665.75;5006796;28;20038;-77
2023/03/15 03:13:29;;;;;;;10.20;6.70;;;;;;;6.18;42.24;92668.72;5010319;28;20068;-77
2023/03/15 03:15:57;;;;;;;14.70;7.45;;;;;;;6.12;42.12;92665.41;5007662;28;20040;-78
2023/03/15 03:18:30;;;;;;;9.18;7.57;;;;;;;6.14;42.28;92681.72;5010518;28;20089;-79
2023/03/15 03:20:58;;;;;;;10.88;8.20;;;;;;;5.96;42.29;92649.31;5008844;28;20037;-79
2023/03/15 03:23:24;;;;;;;11.82;8.43;;;;;;;6.24;42.79;92696.50;4997380;28;20028;-77
2023/03/15 03:25:52;;;;;;;12.15;8.48;;;;;;;6.24;42.69;92691.22;5010636;28;20053;-77
2023/03/15 03:28:19;;;;;;;10.50;8.50;;;;;;;6.16;43.07;92678.81;5009889;28;20148;-79
2023/03/15 03:30:44;;;;;;;12.68;8.65;;;;;;;6.26;43.26;92683.78;5010921;28;20034;-77
2023/03/15 03:33:10;;;;;;;16.52;9.15;;;;;;;5.88;43.31;92668.53;5009567;28;20903;-79
2023/03/15 03:35:35;;;;;;;13.25;8.20;;;;;;;5.90;43.18;92639.22;4999261;28;20025;-79
2023/03/15 03:38:00;;;;;;;11.43;8.00;;;;;;;6.07;42.94;92662.19;5010393;28;20554;-77
2023/03/15 03:40:26;;;;;;;12.70;7.65;;;;;;;6.23;42.79;92673.81;5009041;28;20037;-77
2023/03/15 03:42:51;;;;;;;9.18;6.95;;;;;;;5.83;43.02;92608.00;5010511;28;20046;-78
2023/03/15 03:45:17;;;;;;;13.25;7.68;;;;;;;5.84;43.01;92622.00;5008723;28;20029;-79
2023/03/15 03:47:42;;;;;;;10.75;6.97;;;;;;;6.18;43.29;92660.78;4999722;28;20451;-78
2023/03/15 03:50:09;;;;;;;11.07;7.30;;;;;;;6.13;43.18;92640.59;4993050;28;20073;-78
2023/03/15 03:52:35;;;;;;;10.90;7.47;;;;;;;6.05;43.79;92640.59;4998820;28;20038;-79
2023/03/15 03:55:00;;;;;;;9.88;7.97;;;;;;;6.29;43.82;92675.22;5008180;28;20049;-77
2023/03/15 03:57:25;;;;;;;17.40;10.93;;;;;;;6.29;43.58;92662.81;5009566;28;20048;-77
2023/03/15 03:59:51;;;;;;;13.80;10.30;;;;;;;6.26;43.71;92660.03;4991046;28;20030;-78
2023/03/15 04:02:16;;;;;;;13.13;9.30;;;;;;;6.09;43.85;92620.41;5009241;28;20048;-77
2023/03/15 04:04:42;;;;;;;10.13;8.32;;;;;;;6.15;43.88;92640.28;5008687;28;20046;-78
2023/03/15 04:07:07;;;;;;;15.85;9.13;;;;;;;6.29;44.33;92646.97;4991951;28;20034;-77
2023/03/15 04:09:36;;;;;;;17.52;9.55;;;;;;;6.39;43.98;92645.84;5008806;28;20990;-77
2023/03/15 04:12:04;;;;;;;16.70;9.77;;;;;;;6.09;44.15;92615.13;5009795;28;20030;-78
2023/03/15 04:14:29;;;;;;;15.73;11.05;;;;;;;6.32;44.53;92651.59;5008322;28;20071;-78
2023/03/15 04:16:54;;;;;;;14.25;9.88;;;;;;;6.10;44.83;92621.97;5014578;28;20038;-79
2023/03/15 04:19:20;;;;;;;12.57;10.00;;;;;;;6.01;44.63;92614.06;5003491;28;20509;-77
2023/03/15 04:21:46;;;;;;;14.02;9.48;;;;;;;6.12;44.52;92630.31;5012482;28;20030;-77
2023/03/15 04:24:11;;;;;;;13.57;9.60;;;;;;;6.23;45.12;92642.16;5013705;28;20037;-78
2023/03/15 04:26:37;;;;;;;15.38;11.60;;;;;;;6.37;44.68;92648.00;5013294;28;20013;-78
2023/03/15 04:29:03;;;;;;;14.70;10.57;;;;;;;6.15;44.68;92629.72;5013504;28;20042;-79
2023/03/15 04:31:28;;;;;;;15.32;11.50;;;;;;;6.10;44.84;92643.84;5013572;28;20095;-78
2023/03/15 04:33:54;;;;;;;19.10;12.95;;;;;;;6.10;44.66;92635.16;5014513;28;20156;-78
2023/03/15 04:36:21;;;;;;;19.45;12.77;;;;;;;6.14;44.69;92644.00;5012874;28;20034;-78
2023/03/15 04:38:48;;;;;;;22.35;18.13;;;;;;;6.32;43.83;92640.25;5013158;28;20037;-77
2023/03/15 04:41:15;;;;;;;28.20;19.23;;;;;;;6.21;43.42;92639.84;5010962;28;20509;-79
2023/03/15 04:43:40;;;;;;;25.98;18.45;;;;;;;6.01;44.77;92619.34;4999510;28;20026;-79
2023/03/15 04:46:06;;;;;;;23.70;16.85;;;;;;;6.28;43.81;92639.34;5013419;28;20037;-79
2023/03/15 04:48:32;;;;;;;23.15;17.42;;;;;;;6.18;45.08;92634.38;5013412;28;20037;-79
2023/03/15 04:50:57;;;;;;;22.67;15.80;;;;;;;6.13;44.75;92632.66;5011827;28;20291;-78
2023/03/15 04:53:22;;;;;;;19.83;14.68;;;;;;;6.06;43.75;92623.69;5012049;28;20042;-78
2023/03/15 04:55:48;;;;;;;20.23;13.85;;;;;;;6.18;44.54;92640.44;5012715;28;20085;-78
2023/03/15 04:58:13;;;;;;;19.50;15.30;;;;;;;5.87;45.54;92582.56;5012857;28;20128;-77
2023/03/15 05:00:39;;;;;;;20.25;13.30;;;;;;;6.25;45.11;92637.34;5014217;28;20033;-79
2023/03/15 05:03:04;;;;;;;20.35;14.15;;;;;;;6.20;44.80;92632.22;5008816;28;20029;-79
2023/03/15 05:05:32;;;;;;;18.60;13.35;;;;;;;6.09;44.92;92617.75;5013584;28;20028;-77
2023/03/15 05:07:58;;;;;;;18.08;12.25;;;;;;;6.15;45.30;92629.72;5010217;28;20772;-76
2023/03/15 05:10:24;;;;;;;16.42;12.10;;;;;;;6.29;45.03;92643.53;5012788;28;20052;-79
2023/03/15 05:12:50;;;;;;;16.95;12.43;;;;;;;5.80;45.20;92576.22;5012156;28;20072;-78
2023/03/15 05:15:15;;;;;;;20.60;12.35;;;;;;;6.22;44.48;92651.16;5013511;28;20823;-78
2023/03/15 05:17:41;;;;;;;20.60;13.85;;;;;;;6.05;44.18;92616.84;5012188;28;20037;-78
2023/03/15 05:20:10;;;;;;;20.13;12.48;;;;;;;6.17;43.54;92622.28;5013312;28;20509;-78
2023/03/15 05:22:36;;;;;;;21.23;13.02;;;;;;;6.10;43.21;92616.69;5008859;28;20092;-76
2023/03/15 05:25:02;;;;;;;18.70;12.55;;;;;;;6.23;44.97;92613.88;5011793;28;20095;-76
2023/03/15 05:27:28;;;;;;;20.50;13.05;;;;;;;6.39;43.79;92630.00;5013303;28;20033;-78
2023/03/15 05:29:53;;;;;;;20.63;15.15;;;;;;;6.32;42.78;92614.63;5010695;28;20021;-78
2023/03/15 05:32:18;;;;;;;21.63;14.00;;;;;;;6.12;44.05;92602.06;5011785;28;20033;-78
2023/03/15 05:34:44;;;;;;;20.38;14.02;;;;;;;6.13;43.43;92627.38;5014804;28;20060;-77
2023/03/15 05:37:11;;;;;;;24.98;16.15;;;;;;;5.83;43.81;92633.63;5010792;28;20577;-77
2023/03/15 05:39:36;;;;;;;19.63;13.98;;;;;;;5.93;44.35;92618.25;5011236;28;20030;-79
2023/03/15 05:42:02;;;;;;;25.00;14.48;;;;;;;6.29;44.43;92622.41;5013938;28;20089;-79
2023/03/15 05:44:27;;;;;;;20.42;14.63;;;;;;;6.42;43.41;92624.84;5012189;28;20022;-77
2023/03/15 05:46:53;;;;;;;25.60;15.02;;;;;;;6.25;44.00;92605.66;5014391;28;20038;-78
2023/03/15 05:49:18;;;;;;;24.52;15.85;;;;;;;6.28;44.08;92605.00;5004428;28;20813;-78
2023/03/15 05:51:43;;;;;;;23.42;15.93;;;;;;;6.30;43.93;92603.63;5009719;28;20033;-77
2023/03/15 05:54:09;;;;;;;29.45;16.52;;;;;;;6.50;45.02;92625.94;5013885;28;20509;-78
2023/03/15 05:56:35;;;;;;;27.25;15.90;;;;;;;6.19;44.34;92623.53;5010346;28;20041;-77
2023/03/15 05:59:01;;;;;;;25.58;15.38;;;;;;;6.11;44.46;92623.53;4993961;28;20025;-78
2023/03/15 06:01:27;;;;;;;25.48;16.92;;;;;;;5.85;44.74;92595.28;5010232;28;20049;-78
2023/03/15 06:03:52;;;;;;;21.70;15.07;;;;;;;5.72;45.39;92627.91;5011135;28;20034;-79
2023/03/15 06:06:18;;;;;;;24.20;16.65;;;;;;;5.08;46.76;92632.97;5009671;28;20065;-78
2023/03/15 06:08:43;;;;;;;26.08;16.55;;;;;;;4.22;48.39;92594.97;5012129;28;20055;-77
2023/03/15 06:11:09;;;;;;;31.38;17.63;;;;;;;4.05;49.64;92614.09;5010960;28;20033;-78
2023/03/15 06:13:34;;;;;;;24.70;17.13;;;;;;;4.02;49.84;92638.34;5011919;28;20409;-77
2023/03/15 06:15:59;;;;;;;27.65;16.92;;;;;;;4.20;49.04;92645.28;5009074;28;20045;-77
2023/03/15 06:18:25;;;;;;;29.35;16.90;;;;;;;3.44;48.55;92608.69;5011247;28;20033;-79
2023/03/15 06:20:50;;;;;;;21.77;15.00;;;;;;;4.22;48.01;92624.69;5009776;28;20026;-77
2023/03/15 06:23:15;;;;;;;27.17;15.43;;;;;;;4.92;46.45;92650.28;5010723;28;20035;-77
2023/03/15 06:25:41;;;;;;;30.05;15.80;;;;;;;4.98;45.83;92645.63;4994629;28;20049;-77
2023/03/15 06:28:06;;;;;;;27.05;15.35;;;;;;;4.46;45.54;92613.84;4990048;28;20461;-79
2023/03/15 06:30:32;;;;;;;20.27;13.18;;;;;;;4.83;44.97;92606.53;4990820;28;20536;-78
2023/03/15 06:32:57;;;;;;;23.00;13.43;;;;;;;5.61;44.65;92621.38;4973143;28;20088;-78
2023/03/15 06:35:22;;;;;;;23.58;14.77;;;;;;;5.86;43.44;92611.91;4988442;28;20026;-79
2023/03/15 06:37:48;;;;;;;26.42;14.38;;;;;;;5.78;42.90;92605.53;4993128;28;20659;-78
2023/03/15 06:40:13;;;;;;;19.98;12.38;;;;;;;6.32;42.18;92634.97;4990792;28;20502;-78
2023/03/15 06:42:40;;;;;;;23.60;13.35;;;;;;;6.40;41.47;92616.50;4990640;28;20103;-77
2023/03/15 06:45:07;;;;;;;23.17;14.15;;;;;;;5.94;42.89;92598.69;4991210;28;20037;-79
2023/03/15 06:47:33;;;;;;;24.23;13.60;;;;;;;6.42;42.68;92610.88;4975360;28;20398;-78
2023/03/15 06:49:58;;;;;;;25.08;13.88;;;;;;;6.52;41.79;92602.59;4989229;28;20034;-77
2023/03/15 06:52:24;;;;;;;19.77;11.30;;;;;;;5.80;42.13;92582.25;4991553;28;20175;-77
2023/03/15 06:54:49;;;;;;;22.48;10.60;;;;;;;5.73;41.46;92568.75;4989477;28;20509;-79
2023/03/15 06:57:15;;;;;;;18.23;10.90;;;;;;;6.31;41.65;92617.59;4993043;28;20096;-78
2023/03/15 06:59:40;;;;;;;14.68;9.75;;;;;;;5.70;42.91;92613.47;4989935;28;20026;-78
2023/03/15 07:02:13;;;;;;;21.23;10.02;;;;;;;5.34;42.74;92609.25;4992339;28;20034;-80
2023/03/15 07:04:38;;;;;;;17.25;8.73;;;;;;;5.35;42.92;92610.03;4987657;28;20100;-79
2023/03/15 07:07:04;;;;;;;18.75;9.98;;;;;;;5.57;43.13;92604.63;4987180;28;20117;-78
2023/03/15 07:09:29;;;;;;;14.05;8.73;;;;;;;5.68;41.99;92558.38;4988642;28;20045;-78
2023/03/15 07:11:55;;;;;;;16.50;8.27;;;;;;;6.66;41.24;92595.25;4990221;28;20076;-79
2023/03/15 07:14:21;;;;;;;18.70;8.23;;;;;;;6.66;40.21;92582.03;4990453;28;20022;-77
2023/03/15 07:16:47;;;;;;;18.13;6.93;;;;;;;6.61;40.21;92605.22;4987623;28;20109;-80
2023/03/15 07:19:12;;;;;;;9.55;6.25;;;;;;;6.73;40.13;92614.03;4985603;28;20058;-79
2023/03/15 07:21:37;;;;;;;10.23;6.85;;;;;;;6.97;39.40;92591.53;4984939;28;20702;-78
2023/03/15 07:24:03;;;;;;;18.90;9.00;;;;;;;7.30;39.48;92603.00;4986842;28;20176;-79
2023/03/15 07:26:28;;;;;;;14.75;6.70;;;;;;;7.55;39.47;92617.91;5002847;28;20059;-78
2023/03/15 07:28:54;;;;;;;10.93;7.40;;;;;;;7.48;39.26;92580.63;5000739;28;20052;-79
2023/03/15 07:31:19;;;;;;;15.25;8.73;;;;;;;7.44;38.28;92579.72;5010894;28;20425;-79
2023/03/15 07:33:45;;;;;;;23.10;12.57;;;;;;;7.57;37.98;92581.34;5006723;28;20041;-79
2023/03/15 07:36:10;;;;;;;16.38;6.95;;;;;;;8.00;38.54;92596.09;5011628;28;20133;-78
2023/03/15 07:38:36;;;;;;;12.45;6.28;;;;;;;7.97;37.22;92589.56;5008825;28;20508;-80
2023/03/15 07:41:04;;;;;;;14.77;7.13;;;;;;;7.10;38.34;92595.81;5008356;28;20045;-78
2023/03/15 07:43:30;;;;;;;14.55;6.72;;;;;;;6.98;38.46;92579.88;4993379;28;20061;-78
2023/03/15 07:45:55;;;;;;;9.98;6.35;;;;;;;6.88;38.51;92596.88;4997041;28;20070;-78
2023/03/15 07:48:20;;;;;;;29.25;10.45;;;;;;;7.50;38.37;92599.59;5014911;28;20036;-80
2023/03/15 07:50:46;;;;;;;10.43;5.63;;;;;;;7.72;37.33;92590.56;5012809;28;20038;-79
2023/03/15 07:53:11;;;;;;;9.43;5.75;;;;;;;7.71;36.65;92584.50;5010206;28;20072;-76
2023/03/15 07:55:37;;;;;;;15.82;7.55;;;;;;;7.76;36.70;92580.13;5004799;28;20430;-78
2023/03/15 07:58:02;;;;;;;8.70;6.55;;;;;;;8.01;37.08;92598.44;5012380;28;20065;-79
2023/03/15 08:00:28;;;;;;;11.65;6.88;;;;;;;8.01;36.98;92556.06;5000805;28;20045;-78
2023/03/15 08:02:53;;;;;;;13.00;6.78;;;;;;;8.48;36.42;92588.28;5013639;28;20512;-78
2023/03/15 08:05:19;;;;;;;19.55;8.32;;;;;;;8.12;36.42;92540.50;5010706;28;20033;-77
2023/03/15 08:07:46;;;;;;;16.40;9.60;;;;;;;8.40;35.90;92602.41;5014369;28;20397;-78
2023/03/15 08:10:13;;;;;;;12.80;7.45;;;;;;;7.52;37.21;92597.41;5011651;28;20128;-78
2023/03/15 08:12:41;;;;;;;10.73;7.00;;;;;;;7.69;37.69;92588.53;4999448;28;20144;-78
2023/03/15 08:15:13;;;;;;;17.45;10.73;;;;;;;8.17;36.61;92571.34;5005878;28;20025;-77
2023/03/15 08:17:40;;;;;;;13.13;7.82;;;;;;;8.14;36.69;92583.34;4992103;28;20084;-78
2023/03/15 08:20:10;;;;;;;16.63;7.75;;;;;;;8.08;36.99;92555.50;5005052;28;20046;-77
2023/03/15 08:22:38;;;;;;;10.75;7.38;;;;;;;8.48;36.41;92572.38;4984974;28;20434;-79
2023/03/15 08:25:05;;;;;;;13.38;7.68;;;;;;;8.80;35.81;92585.88;5003714;28;20048;-78
2023/03/15 08:27:30;;;;;;;13.18;7.32;;;;;;;8.87;34.84;92555.06;5004710;28;20529;-79
2023/03/15 08:29:56;;;;;;;15.13;7.97;;;;;;;8.85;35.52;92561.81;5003486;28;20038;-77
2023/03/15 08:32:21;;;;;;;12.80;7.70;;;;;;;8.28;36.18;92554.69;4995185;28;20034;-78
2023/03/15 08:34:47;;;;;;;20.77;8.30;;;;;;;8.83;35.61;92571.97;5002132;28;20376;-78
2023/03/15 08:37:13;;;;;;;11.82;7.63;;;;;;;8.98;35.68;92553.50;5006307;28;20045;-78
2023/03/15 08:39:38;;;;;;;14.20;8.20;;;;;;;7.79;36.91;92542.41;5003066;28;20143;-77
2023/03/15 08:42:04;;;;;;;11.43;7.72;;;;;;;7.92;37.17;92562.53;5007353;28;20031;-76
2023/03/15 08:44:30;;;;;;;14.02;8.20;;;;;;;8.36;36.75;92551.19;5005110;28;20462;-77
2023/03/15 08:46:55;;;;;;;15.13;7.78;;;;;;;8.03;38.45;92537.97;5006995;28;20033;-78
2023/03/15 08:49:20;;;;;;;17.65;7.93;;;;;;;8.36;37.12;92569.72;5003332;28;20042;-77
2023/03/15 08:51:46;;;;;;;15.98;7.22;;;;;;;8.08;37.05;92558.16;4987514;28;20071;-77
2023/03/15 08:54:13;;;;;;;12.48;7.10;;;;;;;8.08;37.59;92566.09;5004710;28;20043;-79
2023/03/15 08:56:39;;;;;;;10.13;6.15;;;;;;;7.35;37.72;92534.03;5005980;28;20032;-80
2023/03/15 08:59:04;;;;;;;7.82;5.78;;;;;;;7.91;37.73;92567.06;5007133;28;20528;-78
2023/03/15 09:01:29;;;;;;;12.85;6.05;;;;;;;7.73;37.42;92531.25;5001514;28;20045;-77
2023/03/15 09:03:55;;;;;;;13.57;7.00;;;;;;;7.66;37.30;92537.06;5006174;28;20072;-78
2023/03/15 09:06:21;;;;;;;9.70;6.72;;;;;;;7.50;37.89;92575.00;5008136;28;20033;-78
2023/03/15 09:08:46;;;;;;;10.52;6.53;;;;;;;7.58;38.27;92556.41;5006176;28;20108;-80
2023/03/15 09:11:12;;;;;;;10.75;6.18;;;;;;;7.26;38.49;92543.91;5003501;28;20030;-79
2023/03/15 09:13:37;;;;;;;11.27;7.05;;;;;;;7.49;37.61;92537.19;4987983;28;20117;-78
2023/03/15 09:16:03;;;;;;;12.98;7.07;;;;;;;8.11;37.54;92565.47;5006584;28;20039;-79
2023/03/15 09:18:29;;;;;;;16.58;7.38;;;;;;;7.94;38.01;92573.56;5004189;28;20049;-78
2023/03/15 09:20:55;;;;;;;12.43;7.40;;;;;;;7.86;37.57;92542.66;5004439;28;20029;-77
2023/03/15 09:23:21;;;;;;;10.35;6.82;;;;;;;7.83;38.21;92575.06;5003511;28;20033;-77
2023/03/15 09:25:47;;;;;;;12.20;6.68;;;;;;;7.62;38.37;92559.97;5005265;28;20296;-77
2023/03/15 09:28:12;;;;;;;16.30;7.68;;;;;;;7.58;38.12;92579.47;5003478;28;20044;-78
2023/03/15 09:30:40;;;;;;;12.02;6.35;;;;;;;7.33;38.47;92544.19;5003258;28;20790;-79
2023/03/15 09:33:06;;;;;;;10.15;6.55;;;;;;;7.35;38.98;92576.34;5004659;28;20668;-79
2023/03/15 09:35:31;;;;;;;11.45;6.45;;;;;;;7.67;38.53;92551.84;5004099;28;20421;-78
2023/03/15 09:37:59;;;;;;;10.35;6.97;;;;;;;7.67;38.30;92559.00;4986706;28;20069;-78
2023/03/15 09:40:27;;;;;;;11.52;6.70;;;;;;;7.94;38.04;92552.38;5003212;28;20034;-78
2023/03/15 09:43:05;;;;;;;11.45;6.68;;;;;;;8.27;38.30;92560.28;5004971;28;20069;-78
2023/03/15 09:46:05;;;;;;;13.52;6.63;;;;;;;8.23;38.21;92557.53;5003818;28;20041;-78
2023/03/15 09:48:37;;;;;;;15.10;7.25;;;;;;;7.66;38.84;92547.63;5001348;28;20045;-77
2023/03/15 09:51:21;;;;;;;9.10;6.57;;;;;;;7.23;39.65;92552.50;4987200;28;20025;-78
2023/03/15 09:54:02;;;;;;;14.43;8.40;;;;;;;7.50;39.86;92544.03;4990322;28;20363;-78
2023/03/15 09:56:44;;;;;;;16.05;7.03;;;;;;;7.66;38.84;92541.56;4983644;28;20574;-78
2023/03/15 09:59:11;;;;;;;13.73;7.57;;;;;;;7.26;40.31;92526.19;5005784;28;20045;-79
2023/03/15 10:01:39;;;;;;;16.83;6.95;;;;;;;7.36;39.67;92532.94;5001326;28;20037;-77
2023/03/15 10:04:17;;;;;;;13.45;6.32;;;;;;;7.91;39.19;92547.75;4990459;28;20033;-78
2023/03/15 10:06:48;;;;;;;12.88;6.95;;;;;;;7.93;38.96;92551.59;4984236;28;20125;-77
2023/03/15 10:09:21;;;;;;;16.33;7.15;;;;;;;7.48;39.63;92527.72;5008125;28;20484;-78
2023/03/15 10:12:01;;;;;;;14.02;7.03;;;;;;;7.81;39.42;92550.81;5008446;28;20052;-77
2023/03/15 10:14:46;;;;;;;17.13;9.48;;;;;;;7.73;39.49;92546.38;5003038;28;20042;-79
2023/03/15 10:17:17;;;;;;;16.38;8.32;;;;;;;7.85;39.09;92546.41;5002629;28;20459;-78
2023/03/15 10:19:49;;;;;;;14.18;7.55;;;;;;;7.87;39.20;92555.59;5001770;28;20041;-80
2023/03/15 10:22:24;;;;;;;15.52;7.88;;;;;;;7.77;39.45;92549.91;5001584;28;20557;-77
2023/03/15 10:24:55;;;;;;;15.93;7.68;;;;;;;7.54;39.42;92552.09;5004336;28;20049;-77
2023/03/15 10:27:30;;;;;;;12.75;7.68;;;;;;;7.67;39.14;92529.91;5004982;28;20123;-79
2023/03/15 10:29:58;;;;;;;36.95;25.50;;;;;;;7.77;39.27;92549.91;4984243;28;20021;-78
2023/03/15 10:32:29;;;;;;;14.23;8.90;;;;;;;7.73;39.00;92518.78;5004000;28;20037;-77
2023/03/15 10:34:56;;;;;;;29.95;12.68;;;;;;;7.47;38.79;92478.56;4988701;28;20153;-78
2023/03/15 10:37:24;;;;;;;14.07;7.57;;;;;;;7.77;38.49;92544.63;5002964;28;20067;-80
2023/03/15 10:39:55;;;;;;;91.75;48.83;;;;;;;7.78;39.14;92540.88;5001802;28;20037;-77
2023/03/15 10:42:32;;;;;;;16.58;9.57;;;;;;;7.73;38.44;92505.56;4992501;28;20049;-77
2023/03/15 10:45:10;;;;;;;17.88;9.13;;;;;;;8.18;38.51;92533.91;4991914;28;20040;-77
2023/03/15 10:47:42;;;;;;;17.95;7.72;;;;;;;8.29;38.33;92540.34;5000643;28;20028;-79
2023/03/15 10:50:09;;;;;;;13.10;7.97;;;;;;;8.07;38.83;92538.09;5002483;28;20044;-78
2023/03/15 10:52:40;;;;;;;15.25;7.85;;;;;;;8.08;38.70;92521.09;5003862;28;20148;-77
2023/03/15 10:55:18;;;;;;;12.05;6.85;;;;;;;8.11;38.37;92550.34;5002787;28;20717;-79
2023/03/15 10:57:55;;;;;;;15.95;8.23;;;;;;;8.32;38.30;92544.97;4989424;28;20060;-76
2023/03/15 11:00:28;;;;;;;15.77;8.65;;;;;;;8.70;37.92;92533.31;5001981;28;20041;-78
2023/03/15 11:03:18;;;;;;;16.52;7.75;;;;;;;8.13;37.49;92375.25;4984509;28;20931;-77
2023/03/15 11:05:50;;;;;;;18.48;8.05;;;;;;;9.45;36.66;92529.13;5003774;28;20109;-77
2023/03/15 11:08:18;;;;;;;11.27;7.07;;;;;;;9.13;36.66;92530.88;5001513;28;20034;-78
2023/03/15 11:10:55;;;;;;;10.55;6.22;;;;;;;9.36;36.56;92494.00;5002840;28;20034;-78
2023/03/15 11:13:37;;;;;;;15.35;7.03;;;;;;;9.94;36.44;92516.44;4991544;28;20521;-77
2023/03/15 11:16:17;;;;;;;14.32;7.40;;;;;;;9.88;35.58;92523.88;5003180;28;20547;-78
2023/03/15 11:19:00;;;;;;;14.13;6.30;;;;;;;9.55;35.39;92488.06;4989872;28;20042;-77
2023/03/15 11:21:32;;;;;;;12.70;7.15;;;;;;;10.03;38.05;92530.31;5001940;28;20036;-79
2023/03/15 11:24:00;;;;;;;13.88;7.25;;;;;;;10.27;36.53;92500.19;5002031;28;20030;-78
2023/03/15 11:26:27;;;;;;;15.02;7.13;;;;;;;10.39;38.35;92525.97;4985259;28;20025;-78
2023/03/15 11:28:57;;;;;;;10.38;7.97;;;;;;;10.18;39.35;92532.25;5003178;28;20100;-77
2023/03/15 11:31:25;;;;;;;16.75;7.60;;;;;;;10.00;38.81;92531.03;5000748;28;20046;-78
2023/03/15 11:34:01;;;;;;;10.40;7.10;;;;;;;10.10;38.70;92533.19;4984778;28;20044;-79